LIR weather

Daniel Oduber Quiros International Airport
Liberia, Guanacaste, Costa Rica

Public forecast

Using degrees Celsius for public forecast. Weather courtesy of forecast.io.

Current aviation weather report (METAR) for Daniel Oduber Quiros International Airport

Report is more than 2 hours old.

Retrieved 2019/10/21 04:00 UTC (3 hours ago):

MRLB 210400Z 12006KT 9999 -RA FEW020 OVC100 24/23 A2991 NOSIG

Aviation forecast (TAF) for Daniel Oduber Quiros International Airport

Retrieved 2019/10/21 06:18 UTC (37 minutes ago):

TAF TAF MRLB 210500Z 2106/2206 13005KT 9999 FEW025 SCT120 TX31/2119Z TN22/2112Z TEMPO 2108/2114 VRB02KT 1500 BR BKN005 TEMPO 2121/2124 29006KT SHRA FEW025TCU